createdAt,value
2022-09-10T00:00:13.161Z,97201.81
2022-09-10T00:03:17.646Z,97211.78
2022-09-10T00:06:20.833Z,97207.47
2022-09-10T00:09:24.463Z,97214.22
2022-09-10T00:12:27.354Z,97232.53
2022-09-10T00:15:30.220Z,97233.31
2022-09-10T00:18:34.803Z,97258.53
2022-09-10T00:21:37.786Z,97278.25
2022-09-10T00:24:41.032Z,97297.97
2022-09-10T00:27:43.821Z,97299.19
2022-09-10T00:30:49.862Z,97305.69
2022-09-10T00:38:37.220Z,97315.47
2022-09-10T00:41:41.901Z,97318.09
2022-09-10T00:45:03.086Z,97317.88
2022-09-10T00:48:12.072Z,97313.03
2022-09-10T00:51:15.637Z,97317.06
2022-09-10T00:54:22.683Z,97322.78
2022-09-10T00:57:27.899Z,97302.81
2022-09-10T01:00:31.944Z,97298.78
2022-09-10T01:03:36.104Z,97306.06
2022-09-10T01:06:40.340Z,97301.31
2022-09-10T01:09:45.025Z,97312.13
2022-09-10T01:13:14.182Z,97321.31
2022-09-10T01:16:23.491Z,97319.50
2022-09-10T01:19:58.419Z,97322.78
2022-09-10T01:23:26.089Z,97312.19
2022-09-10T01:26:52.518Z,97313.03
2022-09-10T01:30:04.310Z,97316.06
2022-09-10T01:33:15.373Z,97315.19
2022-09-10T01:36:25.054Z,97316.16
2022-09-10T01:39:29.187Z,97319.31
2022-09-10T01:42:38.336Z,97316.38
2022-09-10T01:45:59.065Z,97315.81
2022-09-10T01:49:28.951Z,97308.09
2022-09-10T01:52:42.274Z,97300.00
2022-09-10T01:55:57.718Z,97292.66
2022-09-10T01:59:10.299Z,97287.34
2022-09-10T02:02:25.964Z,97289.06
2022-09-10T02:05:31.680Z,97294.59
2022-09-10T02:08:40.216Z,97304.78
2022-09-10T02:11:48.591Z,97299.50
2022-09-10T02:15:02.829Z,97309.81
2022-09-10T02:18:22.326Z,97318.38
2022-09-10T02:21:25.406Z,97316.97
2022-09-10T02:24:28.285Z,97313.09
2022-09-10T02:27:31.300Z,97320.13
2022-09-10T02:30:34.226Z,97340.31
2022-09-10T02:33:38.769Z,97359.44
2022-09-10T02:36:41.984Z,97353.97
2022-09-10T02:39:45.060Z,97356.47
2022-09-10T02:42:48.181Z,97360.50
2022-09-10T02:45:57.894Z,97368.81
2022-09-10T02:49:02.140Z,97378.16
2022-09-10T02:52:08.722Z,97397.06
2022-09-10T02:55:14.107Z,97411.03
2022-09-10T02:58:18.461Z,97402.28
2022-09-10T03:01:24.008Z,97394.19
2022-09-10T03:04:40.310Z,97396.59
2022-09-10T03:07:44.903Z,97410.84
2022-09-10T03:10:47.805Z,97402.25
2022-09-10T03:13:52.179Z,97406.13
2022-09-10T03:16:55.675Z,97414.06
2022-09-10T03:20:02.082Z,97405.91
2022-09-10T03:23:04.941Z,97410.19
2022-09-10T03:26:08.228Z,97405.31
2022-09-10T03:29:11.262Z,97404.63
2022-09-10T03:32:15.436Z,97408.69
2022-09-10T03:35:19.657Z,97402.25
2022-09-10T03:38:23.368Z,97384.91
2022-09-10T03:41:27.034Z,97374.31
2022-09-10T03:44:33.556Z,97374.41
2022-09-10T03:47:37.662Z,97363.63
2022-09-10T03:50:44.160Z,97358.94
2022-09-10T03:53:47.416Z,97364.56
2022-09-10T03:56:52.175Z,97362.19
2022-09-10T03:59:54.969Z,97356.94
2022-09-10T04:02:58.552Z,97344.75
2022-09-10T04:06:02.657Z,97345.88
2022-09-10T04:09:05.479Z,97348.69
2022-09-10T04:12:08.990Z,97358.09
2022-09-10T04:15:13.336Z,97353.59
2022-09-10T04:18:16.277Z,97359.69
2022-09-10T04:21:20.592Z,97370.44
2022-09-10T04:24:25.594Z,97378.88
2022-09-10T04:27:28.718Z,97378.22
2022-09-10T04:30:32.290Z,97384.78
2022-09-10T04:33:35.259Z,97391.09
2022-09-10T04:36:40.001Z,97394.16
2022-09-10T04:39:44.055Z,97406.59
2022-09-10T04:42:47.021Z,97424.47
2022-09-10T04:45:49.834Z,97432.81
2022-09-10T04:48:53.005Z,97450.97
2022-09-10T04:52:00.110Z,97458.69
2022-09-10T04:55:03.881Z,97466.44
2022-09-10T04:58:07.313Z,97470.31
2022-09-10T05:01:10.672Z,97475.59
2022-09-10T05:04:13.701Z,97480.09
2022-09-10T05:07:17.983Z,97477.63
2022-09-10T05:10:24.435Z,97476.41
2022-09-10T05:13:27.558Z,97479.09
2022-09-10T05:16:30.576Z,97475.41
2022-09-10T05:19:33.689Z,97477.22
2022-09-10T05:22:43.105Z,97488.03
2022-09-10T05:25:47.972Z,97493.72
2022-09-10T05:28:53.273Z,97502.72
2022-09-10T05:31:57.217Z,97503.13
2022-09-10T05:35:02.145Z,97504.16
2022-09-10T05:38:08.217Z,97505.63
2022-09-10T05:41:13.950Z,97501.38
2022-09-10T05:44:21.541Z,97501.19
2022-09-10T05:47:24.401Z,97496.31
2022-09-10T05:50:28.696Z,97496.09
2022-09-10T05:53:33.446Z,97498.38
2022-09-10T05:56:36.355Z,97494.31
2022-09-10T05:59:39.810Z,97499.84
2022-09-10T06:02:45.339Z,97498.84
2022-09-10T06:06:01.880Z,97486.03
2022-09-10T06:09:19.756Z,97482.59
2022-09-10T06:12:34.218Z,97484.28
2022-09-10T06:15:38.946Z,97474.50
2022-09-10T06:18:44.084Z,97461.91
2022-09-10T06:21:50.858Z,97459.31
2022-09-10T06:24:55.551Z,97462.38
2022-09-10T06:28:01.752Z,97453.41
2022-09-10T06:31:05.708Z,97431.81
2022-09-10T06:34:10.466Z,97442.41
2022-09-10T06:37:13.432Z,97437.09
2022-09-10T06:40:18.541Z,97428.13
2022-09-10T06:43:23.586Z,97414.69
2022-09-10T06:47:30.537Z,97420.19
2022-09-10T06:50:10.443Z,97389.41
2022-09-10T06:53:15.345Z,97373.50
2022-09-10T06:56:20.848Z,97394.28
2022-09-10T07:02:53.383Z,97371.41
2022-09-10T07:05:57.705Z,97351.41
2022-09-10T07:09:03.695Z,97337.50
2022-09-10T07:12:12.390Z,97335.03
2022-09-10T07:15:17.071Z,97319.09
2022-09-10T07:18:20.502Z,97320.72
2022-09-10T07:21:25.289Z,97284.34
2022-09-10T07:24:28.645Z,97260.38
2022-09-10T07:27:41.477Z,97238.91
2022-09-10T07:30:45.295Z,97226.59
2022-09-10T07:33:50.167Z,97221.31
2022-09-10T07:36:56.730Z,97210.28
2022-09-10T07:40:00.336Z,97186.25
2022-09-10T07:43:05.097Z,97171.41
2022-09-10T07:46:09.744Z,97175.28
2022-09-10T07:49:13.129Z,97176.97
2022-09-10T07:52:18.639Z,97163.50
2022-09-10T07:55:25.968Z,97169.00
2022-09-10T07:58:32.230Z,97171.66
2022-09-10T08:01:36.402Z,97169.84
2022-09-10T08:04:39.649Z,97171.06
2022-09-10T08:07:46.584Z,97180.47
2022-09-10T08:10:49.868Z,97172.13
2022-09-10T08:13:56.891Z,97183.00
2022-09-10T08:17:03.379Z,97180.09
2022-09-10T08:20:10.884Z,97182.94
2022-09-10T08:23:18.046Z,97175.47
2022-09-10T08:26:24.368Z,97173.72
2022-09-10T08:29:29.941Z,97162.38
2022-09-10T08:32:35.275Z,97159.53
2022-09-10T08:35:39.705Z,97165.69
2022-09-10T08:38:43.341Z,97178.31
2022-09-10T08:41:53.768Z,97190.09
2022-09-10T08:45:08.245Z,97193.41
2022-09-10T08:48:19.874Z,97189.78
2022-09-10T08:51:28.632Z,97185.34
2022-09-10T08:54:37.604Z,97195.56
2022-09-10T08:57:45.124Z,97190.00
2022-09-10T09:00:54.109Z,97193.56
2022-09-10T09:04:03.727Z,97189.50
2022-09-10T09:07:15.187Z,97187.41
2022-09-10T09:10:28.240Z,97184.19
2022-09-10T09:13:51.715Z,97191.28
2022-09-10T09:17:13.059Z,97194.97
2022-09-10T09:20:19.078Z,97185.97
2022-09-10T09:23:34.374Z,97183.53
2022-09-10T09:26:38.048Z,97181.91
2022-09-10T09:29:47.611Z,97184.53
2022-09-10T09:32:52.888Z,97174.63
2022-09-10T09:36:00.136Z,97173.13
2022-09-10T09:39:16.139Z,97161.97
2022-09-10T09:42:25.191Z,97160.56
2022-09-10T09:45:36.887Z,97155.53
2022-09-10T09:48:42.471Z,97145.03
2022-09-10T09:51:46.961Z,97148.28
2022-09-10T09:58:35.468Z,97138.19
2022-09-10T10:01:42.956Z,97143.63
2022-09-10T10:05:02.537Z,97143.47
2022-09-10T10:08:05.522Z,97130.06
2022-09-10T10:11:09.313Z,97134.78
2022-09-10T10:14:22.608Z,97135.47
2022-09-10T10:17:37.865Z,97138.94
2022-09-10T10:20:43.204Z,97131.50
2022-09-10T10:23:46.785Z,97116.91
2022-09-10T10:26:50.531Z,97124.31
2022-09-10T10:29:56.661Z,97120.47
2022-09-10T10:33:01.891Z,97127.53
2022-09-10T10:36:16.290Z,97124.88
2022-09-10T10:39:27.507Z,97118.00
2022-09-10T10:42:35.639Z,97116.88
2022-09-10T10:45:52.595Z,97120.56
2022-09-10T10:49:07.178Z,97118.00
2022-09-10T10:52:21.429Z,97116.03
2022-09-10T10:55:29.275Z,97111.94
2022-09-10T10:58:56.054Z,97109.69
2022-09-10T11:02:08.128Z,97110.97
2022-09-10T11:05:23.832Z,97107.59
2022-09-10T11:08:33.716Z,97100.75
2022-09-10T11:11:41.349Z,97098.34
2022-09-10T11:14:49.534Z,97095.38
2022-09-10T11:17:59.543Z,97088.78
2022-09-10T11:21:13.057Z,97085.31
2022-09-10T11:24:22.234Z,97080.81
2022-09-10T11:27:30.901Z,97087.00
2022-09-10T11:30:35.498Z,97091.03
2022-09-10T11:33:47.276Z,97092.75
2022-09-10T11:36:56.164Z,97090.69
2022-09-10T11:40:05.666Z,97084.88
2022-09-10T11:43:14.243Z,97089.72
2022-09-10T11:46:23.568Z,97081.63
2022-09-10T11:49:38.156Z,97089.66
2022-09-10T11:52:41.212Z,97085.03
2022-09-10T11:56:05.093Z,97082.69
2022-09-10T11:59:22.312Z,97083.97
2022-09-10T12:03:05.753Z,97081.88
2022-09-10T12:06:16.239Z,97077.59
2022-09-10T12:09:29.179Z,97073.72
2022-09-10T12:12:42.367Z,97089.91
2022-09-10T12:15:52.449Z,97085.50
2022-09-10T12:18:57.763Z,97079.44
2022-09-10T12:22:05.088Z,97081.84
2022-09-10T12:25:30.413Z,97073.47
2022-09-10T12:29:05.459Z,97076.25
2022-09-10T12:32:30.279Z,97081.16
2022-09-10T12:35:46.080Z,97081.41
2022-09-10T12:38:57.792Z,97075.41
2022-09-10T12:42:02.802Z,97076.56
2022-09-10T12:45:09.883Z,97079.66
2022-09-10T12:48:14.201Z,97071.34
2022-09-10T12:51:32.961Z,97072.06
2022-09-10T12:54:53.060Z,97079.66
2022-09-10T12:58:01.952Z,97078.66
2022-09-10T13:01:14.756Z,97073.31
2022-09-10T13:04:30.441Z,97068.41
2022-09-10T13:07:41.726Z,97080.03
2022-09-10T13:10:47.178Z,97064.50
2022-09-10T13:13:59.685Z,97064.75
2022-09-10T13:17:04.319Z,97059.97
2022-09-10T13:20:31.260Z,97065.81
2022-09-10T13:23:48.706Z,97057.94
2022-09-10T13:26:53.348Z,97065.44
2022-09-10T13:30:12.012Z,97073.38
2022-09-10T13:33:22.593Z,97063.44
2022-09-10T13:36:34.410Z,97053.38
2022-09-10T13:40:15.312Z,97053.59
2022-09-10T13:43:31.724Z,97056.13
2022-09-10T13:46:38.307Z,97052.88
2022-09-10T13:49:52.988Z,97040.59
2022-09-10T13:53:00.098Z,97043.97
2022-09-10T13:56:10.200Z,97040.88
2022-09-10T13:59:25.430Z,97036.03
2022-09-10T14:02:41.752Z,97050.09
2022-09-10T14:05:50.102Z,97061.56
2022-09-10T14:08:57.395Z,97073.28
2022-09-10T14:12:03.886Z,97066.44
2022-09-10T14:15:08.428Z,97063.09
2022-09-10T14:18:12.153Z,97068.81
2022-09-10T14:21:18.004Z,97065.94
2022-09-10T14:24:30.709Z,97060.31
2022-09-10T14:27:35.074Z,97058.28
2022-09-10T14:30:38.579Z,97045.69
2022-09-10T14:33:41.556Z,97046.03
2022-09-10T14:36:45.938Z,97044.97
2022-09-10T14:39:49.305Z,97048.19
2022-09-10T14:42:52.222Z,97038.91
2022-09-10T14:45:55.205Z,97046.53
2022-09-10T14:49:09.753Z,97031.88
2022-09-10T14:52:14.712Z,97032.03
2022-09-10T14:55:18.251Z,97027.47
2022-09-10T14:58:21.099Z,97034.34
2022-09-10T15:01:24.390Z,97041.06
2022-09-10T15:04:28.024Z,97032.81
2022-09-10T15:07:32.213Z,97035.59
2022-09-10T15:10:35.308Z,97031.88
2022-09-10T15:13:41.755Z,97034.88
2022-09-10T15:16:44.945Z,97039.44
2022-09-10T15:19:48.479Z,97041.31
2022-09-10T15:22:52.760Z,97051.91
2022-09-10T15:25:58.577Z,97051.25
2022-09-10T15:29:01.370Z,97052.31
2022-09-10T15:32:04.559Z,97048.22
2022-09-10T15:35:08.791Z,97044.50
2022-09-10T15:38:14.009Z,97041.25
2022-09-10T15:41:17.123Z,97040.59
2022-09-10T15:44:20.027Z,97040.59
2022-09-10T15:47:22.927Z,97033.91
2022-09-10T15:50:25.730Z,97034.09
2022-09-10T15:53:33.584Z,97037.81
2022-09-10T15:56:36.730Z,97037.09
2022-09-10T15:59:40.660Z,97037.25
2022-09-10T16:02:47.164Z,97027.06
2022-09-10T16:05:49.968Z,97031.97
2022-09-10T16:08:57.380Z,97030.81
2022-09-10T16:12:00.287Z,97029.59
2022-09-10T16:15:03.346Z,97034.03
2022-09-10T16:18:06.552Z,97033.78
2022-09-10T16:21:12.059Z,97026.94
2022-09-10T16:24:16.180Z,97034.94
2022-09-10T16:27:19.229Z,97030.06
2022-09-10T16:30:22.732Z,97033.88
2022-09-10T16:33:25.651Z,97028.34
2022-09-10T16:36:28.526Z,97027.97
2022-09-10T16:39:32.833Z,97034.94
2022-09-10T16:42:35.594Z,97034.22
2022-09-10T16:45:38.439Z,97033.97
2022-09-10T16:48:42.864Z,97032.38
2022-09-10T16:51:47.320Z,97035.41
2022-09-10T16:54:52.690Z,97029.59
2022-09-10T16:57:55.481Z,97035.41
2022-09-10T17:00:59.362Z,97035.25
2022-09-10T17:04:03.694Z,97037.22
2022-09-10T17:07:06.561Z,97032.50
2022-09-10T17:10:11.509Z,97030.94
2022-09-10T17:13:14.407Z,97029.47
2022-09-10T17:16:23.577Z,97036.38
2022-09-10T17:19:27.471Z,97035.69
2022-09-10T17:22:30.245Z,97032.25
2022-09-10T17:25:34.962Z,97029.81
2022-09-10T17:28:38.097Z,97044.94
2022-09-10T17:31:41.113Z,97040.56
2022-09-10T17:34:44.002Z,97046.44
2022-09-10T17:37:47.126Z,97048.63
2022-09-10T17:40:58.043Z,97050.72
2022-09-10T17:44:01.669Z,97059.06
2022-09-10T17:47:04.637Z,97063.19
2022-09-10T17:50:08.535Z,97070.91
2022-09-10T17:53:11.440Z,97074.03
2022-09-10T17:56:18.960Z,97074.59
2022-09-10T17:59:24.603Z,97080.38
2022-09-10T18:02:30.019Z,97081.63
2022-09-10T18:05:32.995Z,97086.69
2022-09-10T18:08:36.351Z,97095.13
2022-09-10T18:11:42.065Z,97097.69
2022-09-10T18:14:44.818Z,97108.69
2022-09-10T18:17:47.603Z,97103.38
2022-09-10T18:20:50.421Z,97109.00
2022-09-10T18:23:54.614Z,97105.59
2022-09-10T18:27:08.156Z,97109.25
2022-09-10T18:30:17.711Z,97121.16
2022-09-10T18:33:24.810Z,97120.56
2022-09-10T18:36:28.773Z,97122.84
2022-09-10T18:39:33.616Z,97128.25
2022-09-10T18:42:42.499Z,97137.84
2022-09-10T18:45:48.513Z,97126.75
2022-09-10T18:48:55.037Z,97134.72
2022-09-10T18:51:58.578Z,97138.88
2022-09-10T18:55:01.398Z,97134.72
2022-09-10T18:58:09.060Z,97140.50
2022-09-10T19:01:18.400Z,97143.16
2022-09-10T19:04:23.784Z,97144.81
2022-09-10T19:07:26.671Z,97146.84
2022-09-10T19:10:30.486Z,97146.13
2022-09-10T19:13:39.390Z,97154.31
2022-09-10T19:16:42.479Z,97155.16
2022-09-10T19:19:50.213Z,97162.13
2022-09-10T19:22:53.576Z,97163.75
2022-09-10T19:25:58.924Z,97163.78
2022-09-10T19:29:04.511Z,97166.44
2022-09-10T19:32:11.551Z,97166.63
2022-09-10T19:35:18.350Z,97169.41
2022-09-10T19:38:37.011Z,97173.03
2022-09-10T19:41:44.601Z,97176.94
2022-09-10T19:44:52.593Z,97176.94
2022-09-10T19:47:58.576Z,97188.06
2022-09-10T19:51:03.398Z,97200.50
2022-09-10T19:54:07.687Z,97204.59
2022-09-10T19:57:10.583Z,97210.53
2022-09-10T20:00:36.239Z,97212.16
2022-09-10T20:03:45.934Z,97211.84
2022-09-10T20:06:50.333Z,97222.00
2022-09-10T20:09:53.427Z,97229.72
2022-09-10T20:12:57.537Z,97232.09
2022-09-10T20:16:02.682Z,97225.22
2022-09-10T20:19:08.022Z,97225.13
2022-09-10T20:22:14.445Z,97234.44
2022-09-10T20:25:22.917Z,97236.44
2022-09-10T20:28:28.002Z,97236.66
2022-09-10T20:31:41.216Z,97243.19
2022-09-10T20:34:46.498Z,97243.81
2022-09-10T20:37:51.826Z,97244.63
2022-09-10T20:40:59.895Z,97244.03
2022-09-10T20:44:07.864Z,97242.78
2022-09-10T20:47:13.751Z,97250.38
2022-09-10T20:50:19.091Z,97257.91
2022-09-10T20:53:27.172Z,97250.19
2022-09-10T20:56:32.754Z,97242.91
2022-09-10T20:59:41.187Z,97253.97
2022-09-10T21:02:46.833Z,97259.28
2022-09-10T21:05:55.685Z,97257.66
2022-09-10T21:08:59.570Z,97271.22
2022-09-10T21:12:05.755Z,97273.25
2022-09-10T21:15:12.045Z,97279.59
2022-09-10T21:18:16.221Z,97279.16
2022-09-10T21:21:20.831Z,97279.19
2022-09-10T21:24:23.862Z,97282.25
2022-09-10T21:27:26.678Z,97288.78
2022-09-10T21:30:29.526Z,97297.41
2022-09-10T21:33:34.425Z,97300.66
2022-09-10T21:36:38.994Z,97313.72
2022-09-10T21:39:41.787Z,97320.03
2022-09-10T21:42:45.033Z,97312.06
2022-09-10T21:45:48.240Z,97317.03
2022-09-10T21:48:52.372Z,97330.88
2022-09-10T21:51:55.096Z,97341.06
2022-09-10T21:54:57.855Z,97341.94
2022-09-10T21:58:00.673Z,97348.88
2022-09-10T22:01:04.218Z,97352.13
2022-09-10T22:04:08.831Z,97355.19
2022-09-10T22:07:12.018Z,97362.69
2022-09-10T22:10:14.798Z,97359.88
2022-09-10T22:13:17.808Z,97359.50
2022-09-10T22:16:22.704Z,97368.09
2022-09-10T22:19:27.537Z,97371.34
2022-09-10T22:22:30.299Z,97374.41
2022-09-10T22:25:33.389Z,97378.31
2022-09-10T22:28:37.142Z,97385.03
2022-09-10T22:31:40.051Z,97385.25
2022-09-10T22:34:44.199Z,97387.69
2022-09-10T22:37:46.875Z,97390.75
2022-09-10T22:40:51.156Z,97385.00
2022-09-10T22:43:54.259Z,97386.50
2022-09-10T22:46:57.614Z,97377.09
2022-09-10T22:50:01.753Z,97378.56
2022-09-10T22:53:04.672Z,97377.94
2022-09-10T22:56:08.095Z,97383.66
2022-09-10T22:59:13.683Z,97385.28
2022-09-10T23:02:16.672Z,97393.66
2022-09-10T23:05:20.750Z,97383.06
2022-09-10T23:08:25.084Z,97390.63
2022-09-10T23:11:29.290Z,97393.84
2022-09-10T23:14:33.047Z,97394.25
2022-09-10T23:17:35.802Z,97393.06
2022-09-10T23:20:39.937Z,97385.72
2022-09-10T23:23:46.465Z,97388.59
2022-09-10T23:26:49.822Z,97402.44
2022-09-10T23:29:52.517Z,97394.69
2022-09-10T23:32:55.747Z,97402.47
2022-09-10T23:36:00.036Z,97404.06
2022-09-10T23:39:05.274Z,97406.31
2022-09-10T23:42:08.435Z,97407.75
2022-09-10T23:45:12.254Z,97419.56
2022-09-10T23:48:15.018Z,97411.00
2022-09-10T23:51:22.194Z,97405.72
2022-09-10T23:54:25.098Z,97389.41
2022-09-10T23:57:27.820Z,97387.78
